createdAt,value
2023-12-23T00:03:24.000Z,0.3
2023-12-23T00:06:57.000Z,0.5
2023-12-23T00:09:42.000Z,0.4
2023-12-23T00:13:15.000Z,0.8
2023-12-23T00:16:48.000Z,0.6
2023-12-23T00:20:21.000Z,0.6
2023-12-23T00:23:54.000Z,0.5
2023-12-23T00:27:26.000Z,0.5
2023-12-23T00:30:59.000Z,0.5
2023-12-23T00:34:32.000Z,0.5
2023-12-23T00:38:04.000Z,0.6
2023-12-23T00:41:37.000Z,0.6
2023-12-23T00:45:10.000Z,0.5
2023-12-23T00:47:55.000Z,0.6
2023-12-23T00:51:29.000Z,0.8
2023-12-23T00:55:02.000Z,0.6
2023-12-23T00:58:34.000Z,0.6
2023-12-23T01:02:07.000Z,0.9
2023-12-23T01:05:40.000Z,0.8
2023-12-23T01:09:12.000Z,1
2023-12-23T01:12:45.000Z,0.8
2023-12-23T01:16:17.000Z,0.8
2023-12-23T01:19:51.000Z,0.7
2023-12-23T01:23:24.000Z,1
2023-12-23T01:26:09.000Z,1.1
2023-12-23T01:29:42.000Z,0.9
2023-12-23T01:33:14.000Z,1
2023-12-23T01:36:47.000Z,0.8
2023-12-23T01:40:20.000Z,0.7
2023-12-23T01:43:53.000Z,0.8
2023-12-23T01:47:25.000Z,0.9
2023-12-23T01:50:59.000Z,0.8
2023-12-23T01:54:31.000Z,1
2023-12-23T01:58:04.000Z,1.2
2023-12-23T02:01:37.000Z,0.8
2023-12-23T02:04:22.000Z,0.7
2023-12-23T02:07:55.000Z,1
2023-12-23T02:11:28.000Z,0.9
2023-12-23T02:15:11.000Z,0.9
2023-12-23T02:18:44.000Z,0.9
2023-12-23T02:22:17.000Z,1
2023-12-23T02:25:50.000Z,0.7
2023-12-23T02:29:23.000Z,0.8
2023-12-23T02:32:56.000Z,0.9
2023-12-23T02:36:30.000Z,1
2023-12-23T02:40:02.000Z,0.9
2023-12-23T02:42:47.000Z,0.9
2023-12-23T02:46:20.000Z,0.7
2023-12-23T02:49:53.000Z,0.7
2023-12-23T02:53:26.000Z,0.6
2023-12-23T02:56:58.000Z,0.7
2023-12-23T03:00:31.000Z,0.8
2023-12-23T03:04:04.000Z,0.7
2023-12-23T03:07:36.000Z,0.6
2023-12-23T03:11:09.000Z,0.6
2023-12-23T03:14:42.000Z,0.7
2023-12-23T03:18:14.000Z,0.8
2023-12-23T03:21:00.000Z,0.9
2023-12-23T03:24:32.000Z,0.7
2023-12-23T03:28:05.000Z,0.8
2023-12-23T03:31:38.000Z,0.7
2023-12-23T03:35:11.000Z,0.8
2023-12-23T03:38:44.000Z,1.1
2023-12-23T03:42:16.000Z,1.2
2023-12-23T03:45:49.000Z,0.9
2023-12-23T03:49:22.000Z,1
2023-12-23T03:52:55.000Z,1
2023-12-23T03:56:28.000Z,1
2023-12-23T03:59:13.000Z,0.9
2023-12-23T04:02:46.000Z,1.3
2023-12-23T04:06:19.000Z,1.2
2023-12-23T04:09:52.000Z,1.2
2023-12-23T04:13:24.000Z,1.4
2023-12-23T04:16:57.000Z,1.4
2023-12-23T04:20:29.000Z,1.4
2023-12-23T04:24:02.000Z,1.7
2023-12-23T04:27:35.000Z,1.8
2023-12-23T04:31:08.000Z,2.1
2023-12-23T04:34:41.000Z,2
2023-12-23T04:37:26.000Z,1.9
2023-12-23T04:41:00.000Z,1.7
2023-12-23T04:44:33.000Z,1.8
2023-12-23T04:48:06.000Z,1.1
2023-12-23T04:51:39.000Z,1.3
2023-12-23T04:55:12.000Z,1.2
2023-12-23T04:58:45.000Z,1
2023-12-23T05:02:18.000Z,0.8
2023-12-23T05:05:50.000Z,0.9
2023-12-23T05:09:23.000Z,0.8
2023-12-23T05:12:56.000Z,0.7
2023-12-23T05:15:41.000Z,0.6
2023-12-23T05:19:14.000Z,0.5
2023-12-23T05:22:47.000Z,0.5
2023-12-23T05:26:20.000Z,0.4
2023-12-23T05:29:53.000Z,0.5
2023-12-23T05:33:25.000Z,0.3
2023-12-23T05:36:58.000Z,0.4
2023-12-23T05:40:31.000Z,0.7
2023-12-23T05:44:04.000Z,0.4
2023-12-23T05:47:36.000Z,0.5
2023-12-23T05:51:09.000Z,0.6
2023-12-23T05:53:54.000Z,0.8
2023-12-23T05:57:27.000Z,0.9
2023-12-23T06:01:00.000Z,1.4
2023-12-23T06:04:33.000Z,1.9
2023-12-23T06:08:06.000Z,2.4
2023-12-23T06:11:39.000Z,2.7
2023-12-23T06:15:12.000Z,2.4
2023-12-23T06:18:45.000Z,2.6
2023-12-23T06:22:18.000Z,2.6
2023-12-23T06:25:50.000Z,2.8
2023-12-23T06:29:23.000Z,2.4
2023-12-23T06:32:08.000Z,2.2
2023-12-23T06:35:41.000Z,1.9
2023-12-23T06:39:14.000Z,2.2
2023-12-23T06:42:47.000Z,1.7
2023-12-23T06:46:20.000Z,1.8
2023-12-23T06:49:53.000Z,1.8
2023-12-23T06:53:26.000Z,1.9
2023-12-23T06:56:59.000Z,1.6
2023-12-23T07:00:31.000Z,1.3
2023-12-23T07:04:04.000Z,1.5
2023-12-23T07:07:38.000Z,1.5
2023-12-23T07:10:23.000Z,1.7
2023-12-23T07:13:56.000Z,1.4
2023-12-23T07:17:29.000Z,1.4
2023-12-23T07:21:07.000Z,1.5
2023-12-23T07:24:40.000Z,1.2
2023-12-23T07:28:13.000Z,1.3
2023-12-23T07:31:46.000Z,1.2
2023-12-23T07:35:19.000Z,1.5
2023-12-23T07:38:52.000Z,1.2
2023-12-23T07:42:29.000Z,1.3
2023-12-23T07:46:02.000Z,1.2
2023-12-23T07:48:48.000Z,1.4
2023-12-23T07:52:21.000Z,1.3
2023-12-23T07:55:54.000Z,1.3
2023-12-23T07:59:26.000Z,1.3
2023-12-23T08:02:59.000Z,1.2
2023-12-23T08:06:32.000Z,1.4
2023-12-23T08:10:05.000Z,1.4
2023-12-23T08:13:37.000Z,1.3
2023-12-23T08:17:10.000Z,1.4
2023-12-23T08:20:43.000Z,1.4
2023-12-23T08:24:16.000Z,1.3
2023-12-23T08:27:01.000Z,1.2
2023-12-23T08:30:34.000Z,1.3
2023-12-23T08:34:07.000Z,1.3
2023-12-23T08:37:41.000Z,1.3
2023-12-23T08:41:15.000Z,1
2023-12-23T08:44:48.000Z,1.1
2023-12-23T08:48:21.000Z,1.2
2023-12-23T08:51:54.000Z,1.2
2023-12-23T08:55:26.000Z,1
2023-12-23T08:58:59.000Z,1.2
2023-12-23T09:02:32.000Z,1.1
2023-12-23T09:05:17.000Z,1.2
2023-12-23T09:08:49.000Z,1.2
2023-12-23T09:12:22.000Z,1.1
2023-12-23T09:15:56.000Z,1
2023-12-23T09:19:32.000Z,1.1
2023-12-23T09:23:05.000Z,1.1
2023-12-23T09:26:38.000Z,0.9
2023-12-23T09:30:11.000Z,0.9
2023-12-23T09:33:43.000Z,0.8
2023-12-23T09:37:16.000Z,0.9
2023-12-23T09:40:49.000Z,0.9
2023-12-23T09:43:34.000Z,1
2023-12-23T09:47:07.000Z,1
2023-12-23T09:50:40.000Z,0.8
2023-12-23T09:54:13.000Z,0.8
2023-12-23T09:57:46.000Z,0.7
2023-12-23T10:01:19.000Z,0.7
2023-12-23T10:04:53.000Z,0.8
2023-12-23T10:08:25.000Z,0.9
2023-12-23T10:11:58.000Z,1
2023-12-23T10:15:32.000Z,0.9
2023-12-23T10:19:05.000Z,1.1
2023-12-23T10:21:51.000Z,0.9
2023-12-23T10:25:29.000Z,0.9
2023-12-23T10:29:02.000Z,0.8
2023-12-23T10:32:35.000Z,1.4
2023-12-23T10:36:08.000Z,1.4
2023-12-23T10:39:41.000Z,0.8
2023-12-23T10:43:13.000Z,0.8
2023-12-23T10:46:46.000Z,0.9
2023-12-23T10:50:20.000Z,1
2023-12-23T10:53:52.000Z,0.8
2023-12-23T10:57:25.000Z,0.9
2023-12-23T11:00:10.000Z,1
2023-12-23T11:03:43.000Z,1.3
2023-12-23T11:07:16.000Z,1.1
2023-12-23T11:10:49.000Z,1.3
2023-12-23T11:14:21.000Z,1.2
2023-12-23T11:17:54.000Z,1.1
2023-12-23T11:21:29.000Z,1
2023-12-23T11:25:01.000Z,1.2
2023-12-23T11:28:34.000Z,1.3
2023-12-23T11:32:07.000Z,1
2023-12-23T11:35:40.000Z,1.4
2023-12-23T11:38:26.000Z,1.2
2023-12-23T11:41:59.000Z,1.4
2023-12-23T11:45:32.000Z,1.2
2023-12-23T11:49:04.000Z,1.2
2023-12-23T11:52:37.000Z,1.3
2023-12-23T11:56:10.000Z,1.1
2023-12-23T11:59:43.000Z,1.3
2023-12-23T12:03:16.000Z,1.4
2023-12-23T12:06:49.000Z,1.1
2023-12-23T12:10:21.000Z,1.2
2023-12-23T12:13:54.000Z,1.3
2023-12-23T12:16:40.000Z,1.2
2023-12-23T12:20:13.000Z,1.1
2023-12-23T12:23:46.000Z,1.1
2023-12-23T12:27:19.000Z,2.4
2023-12-23T12:30:52.000Z,1.9
2023-12-23T12:34:24.000Z,1.1
2023-12-23T12:37:58.000Z,1.1
2023-12-23T12:41:45.000Z,1.2
2023-12-23T12:45:17.000Z,1.2
2023-12-23T12:48:50.000Z,1.3
2023-12-23T12:52:23.000Z,1
2023-12-23T12:55:08.000Z,1.1
2023-12-23T12:58:41.000Z,0.7
2023-12-23T13:02:14.000Z,0.6
2023-12-23T13:05:46.000Z,1.3
2023-12-23T13:09:19.000Z,1
2023-12-23T13:12:52.000Z,1.5
2023-12-23T13:16:25.000Z,0.9
2023-12-23T13:19:58.000Z,0.7
2023-12-23T13:23:31.000Z,1.2
2023-12-23T13:27:04.000Z,1.6
2023-12-23T13:30:37.000Z,1.1
2023-12-23T13:33:22.000Z,1.3
2023-12-23T13:36:55.000Z,1.2
2023-12-23T13:40:29.000Z,0.6
2023-12-23T13:44:01.000Z,0.6
2023-12-23T13:47:34.000Z,0.9
2023-12-23T13:51:07.000Z,3.3
2023-12-23T13:54:40.000Z,8.7
2023-12-23T13:58:12.000Z,4.2
2023-12-23T14:01:45.000Z,9.1
2023-12-23T14:05:18.000Z,10.4
2023-12-23T14:08:51.000Z,3.5
2023-12-23T14:11:36.000Z,4.2
2023-12-23T14:15:09.000Z,3.3
2023-12-23T14:18:41.000Z,1.2
2023-12-23T14:22:14.000Z,2.6
2023-12-23T14:25:47.000Z,2.5
2023-12-23T14:29:19.000Z,1.4
2023-12-23T14:32:53.000Z,4.1
2023-12-23T14:36:25.000Z,1.9
2023-12-23T14:39:59.000Z,2.5
2023-12-23T14:43:32.000Z,4.6
2023-12-23T14:47:04.000Z,3.4
2023-12-23T14:49:50.000Z,2.2
2023-12-23T14:53:23.000Z,1.1
2023-12-23T14:56:55.000Z,1.1
2023-12-23T15:00:28.000Z,0.8
2023-12-23T15:04:01.000Z,1.3
2023-12-23T15:07:34.000Z,1.7
2023-12-23T15:11:07.000Z,0.9
2023-12-23T15:14:40.000Z,1
2023-12-23T15:18:12.000Z,0.9
2023-12-23T15:21:45.000Z,1.3
2023-12-23T15:25:18.000Z,1.3
2023-12-23T15:28:03.000Z,1.1
2023-12-23T15:31:36.000Z,1.1
2023-12-23T15:35:09.000Z,1.5
2023-12-23T15:38:42.000Z,1.3
2023-12-23T15:42:15.000Z,1.2
2023-12-23T15:45:47.000Z,1.4
2023-12-23T15:49:20.000Z,1.6
2023-12-23T15:52:53.000Z,1.4
2023-12-23T15:56:26.000Z,1.5
2023-12-23T15:59:58.000Z,1.3
2023-12-23T16:03:31.000Z,1.3
2023-12-23T16:06:16.000Z,1.6
2023-12-23T16:09:49.000Z,1.3
2023-12-23T16:13:22.000Z,1.3
2023-12-23T16:16:55.000Z,1.5
2023-12-23T16:20:28.000Z,1.5
2023-12-23T16:24:01.000Z,1.7
2023-12-23T16:27:34.000Z,1.8
2023-12-23T16:31:07.000Z,1.7
2023-12-23T16:34:40.000Z,2
2023-12-23T16:38:14.000Z,2
2023-12-23T16:41:46.000Z,3.9
2023-12-23T16:44:32.000Z,2.1
2023-12-23T16:48:05.000Z,2.4
2023-12-23T16:51:41.000Z,2
2023-12-23T16:55:13.000Z,1.7
2023-12-23T16:58:46.000Z,1.8
2023-12-23T17:02:19.000Z,1.8
2023-12-23T17:05:52.000Z,1.7
2023-12-23T17:09:26.000Z,1.8
2023-12-23T17:12:58.000Z,2.1
2023-12-23T17:16:31.000Z,1.6
2023-12-23T17:20:04.000Z,2.2
2023-12-23T17:22:49.000Z,2.2
2023-12-23T17:26:21.000Z,2.1
2023-12-23T17:29:54.000Z,1.9
2023-12-23T17:33:28.000Z,2
2023-12-23T17:37:01.000Z,2.2
2023-12-23T17:40:34.000Z,2.4
2023-12-23T17:44:07.000Z,2
2023-12-23T17:47:39.000Z,2.2
2023-12-23T17:51:12.000Z,1.8
2023-12-23T17:54:46.000Z,1.7
2023-12-23T17:58:19.000Z,2
2023-12-23T18:01:04.000Z,2.6
2023-12-23T18:04:36.000Z,1.9
2023-12-23T18:08:09.000Z,2.1
2023-12-23T18:11:42.000Z,2.1
2023-12-23T18:15:14.000Z,2.2
2023-12-23T18:18:47.000Z,2.4
2023-12-23T18:22:20.000Z,2.5
2023-12-23T18:25:53.000Z,2.5
2023-12-23T18:29:26.000Z,2.6
2023-12-23T18:32:58.000Z,2.9
2023-12-23T18:36:32.000Z,3
2023-12-23T18:39:17.000Z,3.2
2023-12-23T18:42:50.000Z,3.2
2023-12-23T18:46:22.000Z,3
2023-12-23T18:49:55.000Z,3.3
2023-12-23T18:53:28.000Z,2.6
2023-12-23T18:57:01.000Z,2.8
2023-12-23T19:00:33.000Z,2.5
2023-12-23T19:04:06.000Z,2.7
2023-12-23T19:07:39.000Z,2.8
2023-12-23T19:11:12.000Z,2.7
2023-12-23T19:14:44.000Z,2.4
2023-12-23T19:17:29.000Z,2.5
2023-12-23T19:21:02.000Z,2.4
2023-12-23T19:24:35.000Z,2.4
2023-12-23T19:28:08.000Z,2
2023-12-23T19:31:40.000Z,2.1
2023-12-23T19:35:14.000Z,2.3
2023-12-23T19:38:47.000Z,2.3
2023-12-23T19:42:20.000Z,2.3
2023-12-23T19:45:52.000Z,2.4
2023-12-23T19:49:26.000Z,2.1
2023-12-23T19:52:58.000Z,1.9
2023-12-23T19:55:44.000Z,2.1
2023-12-23T19:59:16.000Z,2.1
2023-12-23T20:02:49.000Z,2.2
2023-12-23T20:06:22.000Z,2.2
2023-12-23T20:09:55.000Z,2.3
2023-12-23T20:13:28.000Z,2.3
2023-12-23T20:17:01.000Z,2.2
2023-12-23T20:20:34.000Z,2.1
2023-12-23T20:24:07.000Z,2.2
2023-12-23T20:27:39.000Z,1.9
2023-12-23T20:31:12.000Z,1.8
2023-12-23T20:33:57.000Z,1.5
2023-12-23T20:37:30.000Z,1.8
2023-12-23T20:41:04.000Z,1.8
2023-12-23T20:44:36.000Z,1.8
2023-12-23T20:48:09.000Z,1.9
2023-12-23T20:51:42.000Z,1.9
2023-12-23T20:55:15.000Z,1.5
2023-12-23T20:58:48.000Z,1.7
2023-12-23T21:02:20.000Z,1.6
2023-12-23T21:05:54.000Z,2
2023-12-23T21:09:27.000Z,1.8
2023-12-23T21:12:12.000Z,1.4
2023-12-23T21:15:45.000Z,1.3
2023-12-23T21:19:18.000Z,1.3
2023-12-23T21:22:51.000Z,1.5
2023-12-23T21:26:24.000Z,1.2
2023-12-23T21:29:56.000Z,1.3
2023-12-23T21:33:29.000Z,1.3
2023-12-23T21:37:02.000Z,1.3
2023-12-23T21:40:35.000Z,1.5
2023-12-23T21:44:12.000Z,1.3
2023-12-23T21:47:45.000Z,1.1
2023-12-23T21:50:34.000Z,1.5
2023-12-23T21:54:07.000Z,1.3
2023-12-23T21:57:40.000Z,1.1
2023-12-23T22:01:13.000Z,1.3
2023-12-23T22:04:46.000Z,1.4
2023-12-23T22:08:19.000Z,1.1
2023-12-23T22:11:52.000Z,1.2
2023-12-23T22:15:24.000Z,1.3
2023-12-23T22:18:57.000Z,0.8
2023-12-23T22:22:30.000Z,0.9
2023-12-23T22:26:03.000Z,0.5
2023-12-23T22:28:48.000Z,0.9
2023-12-23T22:32:21.000Z,1
2023-12-23T22:35:54.000Z,1.3
2023-12-23T22:39:27.000Z,1
2023-12-23T22:43:04.000Z,1
2023-12-23T22:46:37.000Z,0.8
2023-12-23T22:50:09.000Z,0.8
2023-12-23T22:53:42.000Z,1.3
2023-12-23T22:57:15.000Z,0.9
2023-12-23T23:00:48.000Z,1
2023-12-23T23:04:21.000Z,1.1
2023-12-23T23:07:07.000Z,1.9
2023-12-23T23:10:40.000Z,3.3
2023-12-23T23:14:13.000Z,1.6
2023-12-23T23:17:46.000Z,1.4
2023-12-23T23:21:19.000Z,1.1
2023-12-23T23:24:53.000Z,0.9
2023-12-23T23:28:25.000Z,1.1
2023-12-23T23:31:58.000Z,1.1
2023-12-23T23:35:31.000Z,1
2023-12-23T23:39:04.000Z,1.1
2023-12-23T23:42:36.000Z,1.1
2023-12-23T23:45:22.000Z,1
2023-12-23T23:48:54.000Z,1
2023-12-23T23:52:27.000Z,0.9
2023-12-23T23:56:00.000Z,0.8
2023-12-23T23:59:33.000Z,1.6
